Valatie, New York
Current Conditions -  °F | °C
As of 2:54 PM on Sunday 23 Nov 2014 (Local Time) from KPSF Reporting Station
Broken Clouds Broken Clouds  
Wind Chill: 53°   Ceiling: 10000
Heat Index: 53°   Visibility: 10mi
Dew Point: 35°   Wind: 0mph
Humidity: 50%   Direction: NA
Pressure: 30.06"   Gusts: NA
Location:  42.41°N, 73.67°W
Report Text: KPSF 231954Z AUTO 00000KT 10SM BKN100 BKN120 12/02 A3006 RMK AO2 SLP177 T01170017
Loading
Personal Weather Stations






























Interactive Weather Map New forecast layout! Learn more

10-Day Weather Forecast

Advertisements
Track Severe Weather on mobile